Aérodrome :
LOGIN :

S'inscrire | Disclaimer

   EN    FR    IT 

 










Légende :    VFR   VFR Marginal   IFR   IFR Intensif   IFR Très Intensif
Visi : 
Plafond : 
>= 8 km
>= 3000ft
5 à 8 km
1000 à 3000 ft
1500m à 5 km
500 à 1000 ft
800 à 1500m
200 à 500 ft
< 800m
< 200 ft
Symboles :   Orages  Brouillard  Fortes neiges  Fortes précipitations  Vent > 20 kt
SIGMETs :   Divers  Orages  Givrage  Turbulence  Onde Orograph.  Cendres Volcan.






- Altitude de l'aérodrome : 51 ft
- Code IATA : GWT


EDXW - Westerland-Sylt Island

DERNIER METAR :
  • 221550Z 26027G38KT 8000 VCSH SCT015 BKN150 07/// Q1005

METARs EXPIRÉS :
  • 221520Z 26025G35KT 8000 FEW014 BKN140 07/// Q1004
  • 221450Z 27019KT 9000 FEW014 BKN140 05/// Q1004
  • 221420Z 28024G34KT 4600 VCSH BR FEW010 SCT028 05/// Q1004 REUP
  • 221350Z 26020G32KT 8000 VCSH SCT031 08/// Q1003
  • 221320Z 26025G37KT 9000 FEW020 BKN150 08/// Q1003
  • 221250Z 25026G37KT 9000 NSC 08/// Q1003

TAF TAF EDXW
Valide du 22 à 15h jusqu'au 22 à 18h UTC


221400Z 2215/2218 24030G45KT 9999 BKN040
BECMG 2215/2218 26025G35KT



MET'MAP, la Météo Aéronautique d'un coup d'oeil ! - Copyright ORBIFLY Décembre 2007 - Disclaimer

ORBIFLY MET'MAP TEAM :

Programmation & Développement : Alexandra Zaïnal
Sur une idée originale de : Baudouin d'Aumeries
Assistance à la programmation : Marc-Olivier Méhu
Soutien technique & logistique : Manuel Goepfert

Contact : metmap@orbifly.com




SOURCES & CREDITS :

   NOAA